sensor_id;sensor_type;location;lat;lon;timestamp;P1;durP1;ratioP1;P2;durP2;ratioP2
72851;SDS011;60990;55.736;37.650;2022-08-11T09:46:52;4.77;;;1.70;;
72851;SDS011;60990;55.736;37.650;2022-08-11T10:04:25;5.80;;;1.25;;
72851;SDS011;60990;55.736;37.650;2022-08-11T10:06:59;3.83;;;1.10;;
72851;SDS011;60990;55.736;37.650;2022-08-11T10:14:21;3.92;;;1.10;;
72851;SDS011;60990;55.736;37.650;2022-08-11T10:17:08;4.20;;;1.40;;
72851;SDS011;60990;55.736;37.650;2022-08-11T10:19:34;3.60;;;1.50;;
72851;SDS011;60990;55.736;37.650;2022-08-11T10:22:03;4.20;;;1.33;;
72851;SDS011;60990;55.736;37.650;2022-08-11T10:24:59;3.53;;;1.48;;
72851;SDS011;60990;55.736;37.650;2022-08-11T10:27:44;4.07;;;1.40;;
72851;SDS011;60990;55.736;37.650;2022-08-11T10:30:13;4.38;;;1.65;;
72851;SDS011;60990;55.736;37.650;2022-08-11T10:33:18;3.95;;;1.58;;
72851;SDS011;60990;55.736;37.650;2022-08-11T10:36:03;4.17;;;1.30;;
72851;SDS011;60990;55.736;37.650;2022-08-11T10:38:31;4.38;;;1.50;;
72851;SDS011;60990;55.736;37.650;2022-08-11T10:40:59;3.95;;;1.67;;
72851;SDS011;60990;55.736;37.650;2022-08-11T10:43:44;3.97;;;1.58;;
72851;SDS011;60990;55.736;37.650;2022-08-11T10:46:10;5.15;;;1.75;;
72851;SDS011;60990;55.736;37.650;2022-08-11T10:48:56;6.10;;;1.40;;
72851;SDS011;60990;55.736;37.650;2022-08-11T10:51:26;7.07;;;2.50;;
72851;SDS011;60990;55.736;37.650;2022-08-11T10:54:11;10.77;;;3.92;;
72851;SDS011;60990;55.736;37.650;2022-08-11T10:56:57;12.20;;;4.75;;
72851;SDS011;60990;55.736;37.650;2022-08-11T10:59:43;8.85;;;3.28;;
72851;SDS011;60990;55.736;37.650;2022-08-11T11:02:12;10.47;;;3.87;;
72851;SDS011;60990;55.736;37.650;2022-08-11T11:04:46;10.65;;;4.35;;
72851;SDS011;60990;55.736;37.650;2022-08-11T11:07:18;10.52;;;3.67;;
72851;SDS011;60990;55.736;37.650;2022-08-11T11:09:49;12.35;;;4.57;;
72851;SDS011;60990;55.736;37.650;2022-08-11T11:12:24;9.82;;;4.00;;
72851;SDS011;60990;55.736;37.650;2022-08-11T11:15:15;12.47;;;4.60;;
72851;SDS011;60990;55.736;37.650;2022-08-11T11:18:10;19.55;;;6.50;;
72851;SDS011;60990;55.736;37.650;2022-08-11T11:23:42;18.92;;;5.70;;
72851;SDS011;60990;55.736;37.650;2022-08-11T11:35:02;12.18;;;4.20;;
72851;SDS011;60990;55.736;37.650;2022-08-11T11:37:34;11.07;;;4.18;;
72851;SDS011;60990;55.736;37.650;2022-08-11T11:40:07;5.35;;;2.70;;
72851;SDS011;60990;55.736;37.650;2022-08-11T11:42:45;7.17;;;2.50;;
72851;SDS011;60990;55.736;37.650;2022-08-11T11:45:19;6.57;;;2.05;;
72851;SDS011;60990;55.736;37.650;2022-08-11T11:47:47;6.70;;;3.10;;
72851;SDS011;60990;55.736;37.650;2022-08-11T11:51:24;6.40;;;2.83;;
72851;SDS011;60990;55.736;37.650;2022-08-11T13:25:52;5.10;;;2.00;;
72851;SDS011;60990;55.736;37.650;2022-08-11T13:28:20;4.78;;;2.45;;
72851;SDS011;60990;55.736;37.650;2022-08-11T13:36:06;3.70;;;1.90;;
72851;SDS011;60990;55.736;37.650;2022-08-11T13:38:33;4.10;;;2.17;;
72851;SDS011;60990;55.736;37.650;2022-08-11T13:41:00;3.42;;;1.70;;
72851;SDS011;60990;55.736;37.650;2022-08-11T13:43:26;5.00;;;2.35;;
72851;SDS011;60990;55.736;37.650;2022-08-11T13:45:53;3.90;;;1.90;;
72851;SDS011;60990;55.736;37.650;2022-08-11T13:48:39;5.67;;;1.90;;
72851;SDS011;60990;55.736;37.650;2022-08-11T13:51:07;6.00;;;2.22;;
72851;SDS011;60990;55.736;37.650;2022-08-11T13:54:36;4.77;;;1.87;;
72851;SDS011;60990;55.736;37.650;2022-08-11T13:57:04;4.75;;;2.08;;
72851;SDS011;60990;55.736;37.650;2022-08-11T13:59:33;4.70;;;2.15;;
72851;SDS011;60990;55.736;37.650;2022-08-11T14:02:00;5.05;;;2.55;;
72851;SDS011;60990;55.736;37.650;2022-08-11T14:04:44;5.10;;;1.70;;
72851;SDS011;60990;55.736;37.650;2022-08-11T14:07:20;5.65;;;2.00;;
72851;SDS011;60990;55.736;37.650;2022-08-11T14:09:53;5.00;;;2.40;;
72851;SDS011;60990;55.736;37.650;2022-08-11T14:12:26;3.78;;;1.98;;
72851;SDS011;60990;55.736;37.650;2022-08-11T14:15:19;5.25;;;2.08;;
72851;SDS011;60990;55.736;37.650;2022-08-11T14:17:57;4.47;;;2.40;;
72851;SDS011;60990;55.736;37.650;2022-08-11T14:20:36;5.07;;;2.40;;
72851;SDS011;60990;55.736;37.650;2022-08-11T14:23:25;4.55;;;2.22;;
72851;SDS011;60990;55.736;37.650;2022-08-11T14:25:55;3.47;;;1.98;;
72851;SDS011;60990;55.736;37.650;2022-08-11T14:28:40;5.45;;;2.40;;
72851;SDS011;60990;55.736;37.650;2022-08-11T14:31:09;3.87;;;1.97;;
72851;SDS011;60990;55.736;37.650;2022-08-11T14:33:36;5.43;;;2.47;;
72851;SDS011;60990;55.736;37.650;2022-08-11T14:36:03;4.10;;;2.05;;
72851;SDS011;60990;55.736;37.650;2022-08-11T14:38:32;4.22;;;2.38;;
72851;SDS011;60990;55.736;37.650;2022-08-11T14:41:00;4.47;;;2.30;;
72851;SDS011;60990;55.736;37.650;2022-08-11T14:43:45;4.13;;;2.20;;
72851;SDS011;60990;55.736;37.650;2022-08-11T14:46:30;4.20;;;2.00;;
72851;SDS011;60990;55.736;37.650;2022-08-11T14:49:16;4.47;;;2.10;;
72851;SDS011;60990;55.736;37.650;2022-08-11T14:51:44;4.22;;;2.20;;
72851;SDS011;60990;55.736;37.650;2022-08-11T14:54:12;4.57;;;2.97;;
72851;SDS011;60990;55.736;37.650;2022-08-11T14:56:59;5.70;;;2.40;;
72851;SDS011;60990;55.736;37.650;2022-08-11T14:59:27;11.02;;;4.00;;
72851;SDS011;60990;55.736;37.650;2022-08-11T15:01:54;23.48;;;7.78;;
72851;SDS011;60990;55.736;37.650;2022-08-11T15:04:38;26.30;;;7.45;;
72851;SDS011;60990;55.736;37.650;2022-08-11T15:07:04;25.00;;;10.00;;
72851;SDS011;60990;55.736;37.650;2022-08-11T15:09:30;19.83;;;8.17;;
72851;SDS011;60990;55.736;37.650;2022-08-11T15:11:57;19.45;;;7.65;;
72851;SDS011;60990;55.736;37.650;2022-08-11T15:14:34;18.60;;;7.47;;
72851;SDS011;60990;55.736;37.650;2022-08-11T15:17:19;25.67;;;9.90;;
72851;SDS011;60990;55.736;37.650;2022-08-11T15:19:47;23.95;;;9.05;;
72851;SDS011;60990;55.736;37.650;2022-08-11T15:22:32;19.80;;;7.47;;
72851;SDS011;60990;55.736;37.650;2022-08-11T15:25:18;19.40;;;7.43;;
72851;SDS011;60990;55.736;37.650;2022-08-11T15:27:46;13.05;;;4.70;;
72851;SDS011;60990;55.736;37.650;2022-08-11T15:30:33;14.40;;;4.53;;
72851;SDS011;60990;55.736;37.650;2022-08-11T15:33:19;7.05;;;2.70;;
72851;SDS011;60990;55.736;37.650;2022-08-11T15:36:07;7.33;;;3.07;;
72851;SDS011;60990;55.736;37.650;2022-08-11T15:38:54;8.00;;;2.72;;
72851;SDS011;60990;55.736;37.650;2022-08-11T15:44:56;6.72;;;2.78;;
72851;SDS011;60990;55.736;37.650;2022-08-11T15:48:05;5.93;;;2.80;;
72851;SDS011;60990;55.736;37.650;2022-08-11T15:50:36;8.30;;;2.97;;
72851;SDS011;60990;55.736;37.650;2022-08-11T15:53:11;8.75;;;3.25;;
72851;SDS011;60990;55.736;37.650;2022-08-11T15:55:53;6.32;;;2.78;;
72851;SDS011;60990;55.736;37.650;2022-08-11T15:58:20;6.38;;;2.88;;
72851;SDS011;60990;55.736;37.650;2022-08-11T16:01:08;10.00;;;4.05;;
72851;SDS011;60990;55.736;37.650;2022-08-11T16:04:03;6.93;;;2.70;;
72851;SDS011;60990;55.736;37.650;2022-08-11T16:06:55;4.85;;;2.45;;
72851;SDS011;60990;55.736;37.650;2022-08-11T16:12:03;5.40;;;1.70;;
72851;SDS011;60990;55.736;37.650;2022-08-11T16:14:45;4.70;;;2.35;;
72851;SDS011;60990;55.736;37.650;2022-08-11T16:17:34;4.60;;;2.33;;
72851;SDS011;60990;55.736;37.650;2022-08-11T16:20:09;8.52;;;2.90;;
72851;SDS011;60990;55.736;37.650;2022-08-11T16:22:41;6.68;;;2.47;;
72851;SDS011;60990;55.736;37.650;2022-08-11T16:25:11;8.80;;;2.35;;
72851;SDS011;60990;55.736;37.650;2022-08-11T16:27:46;7.47;;;2.33;;
72851;SDS011;60990;55.736;37.650;2022-08-11T16:30:19;5.77;;;1.83;;
72851;SDS011;60990;55.736;37.650;2022-08-11T16:32:47;6.47;;;2.50;;
72851;SDS011;60990;55.736;37.650;2022-08-11T16:35:19;6.00;;;2.28;;
72851;SDS011;60990;55.736;37.650;2022-08-11T16:38:32;4.63;;;2.22;;
72851;SDS011;60990;55.736;37.650;2022-08-11T16:40:59;7.35;;;2.95;;
72851;SDS011;60990;55.736;37.650;2022-08-11T16:45:10;8.07;;;2.00;;
72851;SDS011;60990;55.736;37.650;2022-08-11T16:47:55;4.82;;;2.30;;
72851;SDS011;60990;55.736;37.650;2022-08-11T16:50:21;5.10;;;2.58;;
72851;SDS011;60990;55.736;37.650;2022-08-11T16:52:47;4.53;;;2.45;;
72851;SDS011;60990;55.736;37.650;2022-08-11T16:55:13;4.60;;;2.30;;
72851;SDS011;60990;55.736;37.650;2022-08-11T16:57:39;4.63;;;2.38;;
72851;SDS011;60990;55.736;37.650;2022-08-11T17:00:24;6.53;;;2.60;;
72851;SDS011;60990;55.736;37.650;2022-08-11T17:02:52;5.93;;;3.00;;
72851;SDS011;60990;55.736;37.650;2022-08-11T17:05:40;4.37;;;2.30;;
72851;SDS011;60990;55.736;37.650;2022-08-11T17:08:33;5.03;;;2.50;;
72851;SDS011;60990;55.736;37.650;2022-08-11T17:11:30;12.32;;;5.43;;
72851;SDS011;60990;55.736;37.650;2022-08-11T17:14:52;23.42;;;8.18;;
72851;SDS011;60990;55.736;37.650;2022-08-11T17:20:14;12.53;;;5.40;;
72851;SDS011;60990;55.736;37.650;2022-08-11T17:24:07;13.73;;;5.22;;
